Data for 09/23/2018

Time Sea-Level Adjusted Pressure Absolute Pressure Temperature Relative Humidity Dew Point   
(mb) (inHg) (mb) (inHg) (C) (F) (%) (C) (F)
00:05 1017 30.03 847 25.01 13 55.3 41 -0 31.9
00:10 1017 30.03 846 24.98 12.9 55.3 41 -0.1 31.8
00:15 1017 30.03 846 24.98 12.8 55 42 0.1 32.3
00:20 1017 30.03 846 24.98 12.4 54.2 44 0.5 32.8
00:25 1017 30.03 846 24.98 12.1 53.7 43 -0.1 31.8
00:30 1017 30.03 846 24.98 12 53.6 44 0.1 32.1
00:35 1017 30.03 846 24.98 11.7 53 45 0.2 32.3
00:40 1017 30.03 846 24.98 11.2 52.2 46 0.1 32.2
00:45 1017 30.03 846 24.98 11 51.8 46 -0 32
00:50 1017 30.03 846 24.98 10.8 51.5 46 -0.3 31.5
00:55 1017 30.03 846 24.98 10.9 51.6 46 -0.3 31.5
01:00 1017 30.03 846 24.98 10.9 51.7 45 -0.4 31.3
01:05 1017 30.03 846 24.98 10.6 51.2 48 0.1 32.1
01:10 1017 30.03 846 24.98 9.9 49.9 48 -0.6 30.9
01:15 1017 30.03 846 24.98 9.7 49.5 47 -1 30.3
01:20 1017 30.03 846 24.98 9.7 49.5 48 -0.6 30.9
01:25 1017 30.03 846 24.98 9.7 49.4 50 -0.2 31.6
01:30 1017 30.03 846 24.98 9.7 49.4 50 -0.2 31.6
01:35 1017 30.03 846 24.98 9.7 49.4 50 -0.2 31.6
01:40 1017 30.03 846 24.98 10 50 47 -0.7 30.8
01:45 1017 30.03 846 24.98 10.6 51.1 45 -0.7 30.7
01:50 1017 30.03 846 24.98 10.8 51.5 45 -0.7 30.8
01:55 1016 30 846 24.98 10.8 51.5 45 -0.5 31
02:00 1016 30 846 24.98 10.4 50.8 47 -0.4 31.2
02:05 1016 30 846 24.98 10.2 50.4 47 -0.6 31
02:10 1017 30.03 846 24.98 10.3 50.5 46 -0.8 30.6
02:15 1017 30.03 846 24.98 10.6 51.1 44 -1 30.1
02:20 1017 30.03 846 24.98 11.1 51.9 43 -1 30.2
02:25 1017 30.03 846 24.98 11 51.8 45 -0.3 31.5
02:30 1017 30.03 846 24.98 10.7 51.2 45 -0.8 30.6
02:35 1017 30.03 846 24.98 10.8 51.4 45 -0.7 30.8
02:40 1017 30.03 846 24.98 10.6 51.2 45 -0.8 30.6
02:45 1017 30.03 846 24.98 10.8 51.4 44 -1 30.2
02:50 1017 30.03 846 24.98 10.9 51.6 45 -0.5 31.1
02:55 1017 30.03 846 24.98 10.5 50.8 47 -0.4 31.3
03:00 1017 30.03 846 24.98 10.1 50.1 48 -0.3 31.5
03:05 1017 30.03 846 24.98 9.8 49.7 47 -1 30.2
03:10 1017 30.03 846 24.98 10.1 50.3 50 0.1 32.2
03:15 1017 30.03 846 24.98 9.3 48.7 51 -0.3 31.5
03:20 1017 30.03 846 24.98 9.1 48.4 51 -0.5 31.2
03:25 1017 30.03 846 24.98 8.9 47.9 53 -0.2 31.7
03:30 1017 30.03 846 24.98 8.4 47.2 53 -0.5 31.1
03:35 1017 30.03 846 24.98 9.3 48.8 48 -1.2 29.8
03:40 1017 30.03 846 24.98 9.6 49.4 47 -1 30.2
03:45 1017 30.03 846 24.98 9.9 49.7 47 -0.8 30.5
03:50 1017 30.03 846 24.98 9.8 49.6 49 -0.5 31.2
03:55 1017 30.03 846 24.98 9.4 48.8 50 -0.5 31.1
04:00 1017 30.03 846 24.98 9.1 48.3 53 0 32
04:05 1017 30.03 846 24.98 8.5 47.3 54 -0.3 31.5
04:10 1017 30.03 846 24.98 8.5 47.3 54 -0.1 31.8
04:15 1017 30.03 846 24.98 8.4 47.1 55 -0.2 31.7
04:20 1017 30.03 847 25.01 8.5 47.3 53 -0.5 31.2
04:25 1017 30.03 847 25.01 9 48.2 52 -0.4 31.3
04:30 1017 30.03 847 25.01 9.3 48.7 52 -0.1 31.8
04:35 1017 30.03 847 25.01 9.3 48.7 52 -0.1 31.8
04:40 1017 30.03 847 25.01 9.5 49.1 51 -0.1 31.8
04:45 1017 30.03 846 24.98 9.8 49.6 50 -0.1 31.9
04:50 1017 30.03 846 24.98 9.9 49.8 50 0 32
04:55 1017 30.03 846 24.98 9.8 49.6 52 0.3 32.6
05:00 1017 30.03 846 24.98 9.6 49.2 52 0.2 32.3
05:05 1017 30.03 846 24.98 9.7 49.5 52 0.4 32.6
05:10 1017 30.03 846 24.98 9.4 49 56 1.1 34
05:15 1017 30.03 846 24.98 8.7 47.7 54 -0.1 31.8
05:20 1017 30.03 846 24.98 9.1 48.3 53 -0 32
05:25 1017 30.03 846 24.98 9.4 49 52 0.1 32.2
05:30 1017 30.03 846 24.98 8.9 48.1 56 0.8 33.4
05:35 1017 30.03 846 24.98 8.5 47.2 54 -0.3 31.5
05:40 1017 30.03 846 24.98 8.7 47.7 55 0.1 32.2
05:45 1017 30.03 846 24.98 8.6 47.6 54 -0.1 31.8
05:50 1017 30.03 846 24.98 8.6 47.6 55 0.1 32.2
05:55 1017 30.03 846 24.98 8.5 47.3 55 0.1 32.2
06:00 1017 30.03 846 24.98 8.4 47.1 56 0.2 32.4
06:05 1017 30.03 846 24.98 8.4 47.1 55 0 32
06:10 1017 30.03 846 24.98 8.5 47.3 56 0.3 32.5
06:15 1017 30.03 846 24.98 8.5 47.3 56 0.1 32.2
06:20 1017 30.03 846 24.98 8.6 47.4 56 0.2 32.4
06:25 1017 30.03 847 25.01 8.7 47.7 53 -0.2 31.6
06:30 1017 30.03 847 25.01 9 48.3 53 -0.1 31.8
06:35 1017 30.03 847 25.01 9.3 48.7 54 0.4 32.7
06:40 1017 30.03 847 25.01 9.2 48.6 53 0.2 32.3
06:45 1017 30.03 847 25.01 9.2 48.6 54 0.5 32.9
06:50 1017 30.03 846 24.98 8.7 47.7 58 0.9 33.6
06:55 1017 30.03 847 25.01 8.3 46.9 59 0.8 33.4
07:00 1018 30.06 847 25.01 8.5 47.3 58 0.6 33.1
07:05 1017 30.03 847 25.01 8.7 47.6 57 0.5 33
07:10 1017 30.03 847 25.01 8.7 47.6 58 0.9 33.6
07:15 1017 30.03 846 24.98 8.3 47 61 1.3 34.4
07:20 1017 30.03 847 25.01 8.1 46.6 59 0.7 33.3
07:25 1017 30.03 846 24.98 8.2 46.8 59 0.6 33.1
07:30 1017 30.03 846 24.98 8.4 47.1 57 0.4 32.7
07:35 1017 30.03 846 24.98 8.6 47.5 56 0.4 32.8
07:40 1017 30.03 847 25.01 8.7 47.6 59 1.1 33.9
07:45 1017 30.03 847 25.01 8.7 47.6 57 0.6 33.2
07:50 1018 30.06 847 25.01 8.8 47.9 56 0.7 33.2
07:55 1017 30.03 847 25.01 9 48.1 59 1.3 34.4
08:00 1017 30.03 847 25.01 8.9 47.9 59 1.4 34.6
08:05 1017 30.03 846 24.98 8.8 47.8 60 1.6 34.8
08:10 1017 30.03 846 24.98 8.4 47.2 58 0.8 33.4
08:15 1017 30.03 847 25.01 8.6 47.4 63 1.9 35.4
08:20 1017 30.03 846 24.98 8.5 47.3 63 2 35.6
08:25 1017 30.03 846 24.98 8.2 46.8 65 2.1 35.8
08:30 1017 30.03 847 25.01 8.1 46.5 65 1.8 35.2
08:35 1017 30.03 847 25.01 8.4 47 60 1.1 33.9
08:40 1017 30.03 847 25.01 8.8 47.9 58 1.1 34
08:45 1017 30.03 846 24.98 9 48.3 58 1.3 34.3
08:50 1017 30.03 846 24.98 9 48.2 58 1.3 34.4
08:55 1017 30.03 846 24.98 9.1 48.4 58 1.4 34.5
09:00 1017 30.03 846 24.98 9.3 48.8 60 2 35.6
09:05 1016 30 846 24.98 9.4 48.9 58 1.5 34.7
09:10 1016 30 846 24.98 9.8 49.6 59 2.2 36
09:15 1016 30 846 24.98 9.5 49.1 61 2.5 36.4
09:20 1016 30 845 24.95 9.3 48.7 60 2 35.6
09:25 1016 30 846 24.98 9.4 48.9 57 1.3 34.3
09:30 1017 30.03 846 24.98 9.8 49.7 55 1.2 34.1
09:35 1017 30.03 846 24.98 10.2 50.3 55 1.5 34.6
09:40 1017 30.03 846 24.98 10.4 50.7 54 1.6 34.9
09:45 1017 30.03 846 24.98 10.7 51.3 53 1.7 35
09:50 1017 30.03 847 25.01 11 51.8 53 1.8 35.2
09:55 1018 30.06 847 25.01 11.3 52.3 53 2 35.6
10:00 1018 30.06 847 25.01 11.3 52.4 55 2.7 36.9
10:05 1018 30.06 847 25.01 11.1 52 58 3.2 37.7
10:10 1018 30.06 847 25.01 10.8 51.4 59 3.1 37.5
10:15 1018 30.06 847 25.01 10.4 50.7 62 3.6 38.4
10:20 1018 30.06 847 25.01 9.7 49.4 65 3.4 38.1
10:25 1018 30.06 847 25.01 9.6 49.3 65 3.4 38.1
10:30 1018 30.06 847 25.01 9.7 49.4 64 3.1 37.7
10:35 1018 30.06 847 25.01 9.7 49.4 64 3.2 37.7
10:40 1018 30.06 847 25.01 9.7 49.5 63 3.1 37.6
10:45 1018 30.06 847 25.01 10.3 50.5 60 2.9 37.3
10:50 1018 30.06 847 25.01 10.9 51.6 58 2.9 37.2
10:55 1018 30.06 847 25.01 11 51.7 57 2.8 37.1
11:00 1018 30.06 847 25.01 10.5 51 59 2.9 37.2
11:05 1018 30.06 847 25.01 10.5 50.9 58 2.8 37
11:10 1018 30.06 847 25.01 10.6 51.1 57 2.6 36.7
11:15 1018 30.06 847 25.01 10.6 51.1 56 2.2 36
11:20 1017 30.03 847 25.01 11 51.8 55 2.3 36.2
11:25 1017 30.03 847 25.01 11.3 52.3 55 2.8 37
11:30 1018 30.06 847 25.01 11.6 52.8 53 2.4 36.4
11:35 1018 30.06 847 25.01 11.8 53.2 53 2.5 36.6
11:40 1018 30.06 847 25.01 11.7 53 54 2.7 36.9
11:45 1018 30.06 847 25.01 11.6 52.9 52 2.3 36.1
11:50 1018 30.06 847 25.01 12.1 53.8 51 2.4 36.4
11:55 1017 30.03 847 25.01 12.2 53.9 51 2.4 36.3
12:00 1017 30.03 847 25.01 12.4 54.4 50 2.3 36.1
12:05 1017 30.03 847 25.01 12.7 54.8 50 2.7 36.8
12:10 1017 30.03 847 25.01 13 55.4 50 2.8 37.1
12:15 1018 30.06 847 25.01 12.8 55.1 48 2.1 35.8
12:20 1018 30.06 847 25.01 12.8 55.1 48 2.1 35.9
12:25 1018 30.06 847 25.01 12.8 55 49 2.4 36.3
12:30 1018 30.06 847 25.01 12.9 55.2 48 2.3 36.2
12:35 1018 30.06 847 25.01 12.9 55.2 48 2.1 35.8
12:40 1018 30.06 847 25.01 12.9 55.1 48 2.1 35.7
12:45 1018 30.06 847 25.01 13 55.4 48 2.2 36
12:50 1018 30.06 847 25.01 13.1 55.6 47 2.3 36.1
12:55 1018 30.06 847 25.01 13 55.5 47 2.1 35.8
13:00 1018 30.06 847 25.01 13.1 55.5 47 2.2 36
13:05 1018 30.06 847 25.01 12.9 55.3 48 2.1 35.8
13:10 1018 30.06 847 25.01 13 55.3 47 2 35.6
13:15 1018 30.06 847 25.01 13.1 55.6 47 2.2 36
13:20 1018 30.06 847 25.01 13.1 55.5 48 2.3 36.2
13:25 1018 30.06 847 25.01 12.7 54.8 49 2.3 36.1
13:30 1018 30.06 847 25.01 12.7 54.9 50 2.7 36.9
13:35 1018 30.06 847 25.01 12.6 54.8 50 2.7 36.8
13:40 1018 30.06 847 25.01 12.9 55.2 50 2.7 36.9
13:45 1018 30.06 847 25.01 12.9 55.2 50 2.9 37.2
13:50 1018 30.06 847 25.01 12.9 55.3 50 2.8 37
13:55 1018 30.06 847 25.01 13.3 55.9 50 3 37.5
14:00 1018 30.06 847 25.01 13.3 55.9 51 3.6 38.4
14:05 1018 30.06 847 25.01 12.9 55.3 53 3.6 38.6
14:10 1017 30.03 847 25.01 12.7 54.9 52 3.3 38
14:15 1017 30.03 847 25.01 13 55.4 52 3.3 38
14:20 1017 30.03 847 25.01 12.9 55.3 53 3.5 38.4
14:25 1017 30.03 846 24.98 12.7 54.9 53 3.3 38
14:30 1017 30.03 846 24.98 12.7 54.9 52 3.2 37.7
14:35 1017 30.03 846 24.98 12.9 55.2 51 3.2 37.8
14:40 1017 30.03 846 24.98 12.9 55.2 51 3.2 37.7
14:45 1017 30.03 846 24.98 13 55.3 51 3.2 37.7
14:50 1017 30.03 846 24.98 13.3 56 50 3.2 37.8
14:55 1017 30.03 846 24.98 13.5 56.3 49 3.1 37.6
15:00 1016 30 846 24.98 13.7 56.6 49 3.2 37.8
15:05 1016 30 846 24.98 13.7 56.6 49 3.2 37.7
15:10 1016 30 846 24.98 14.2 57.5 48 3.3 38
15:15 1016 30 845 24.95 14.1 57.3 48 3.5 38.2
15:20 1016 30 845 24.95 14 57.2 49 3.5 38.4
15:25 1016 30 845 24.95 14.3 57.7 48 3.4 38.2
15:30 1016 30 845 24.95 14.6 58.3 46 3.2 37.7
15:35 1016 30 845 24.95 15.1 59.2 45 3.4 38.1
15:40 1016 30 845 24.95 15.2 59.4 46 3.8 38.8
15:45 1016 30 845 24.95 14.7 58.4 48 3.9 39
15:50 1016 30 845 24.95 14.5 58.1 48 3.6 38.5
15:55 1016 30 845 24.95 14 57.2 49 3.6 38.5
16:00 1016 30 845 24.95 13.9 57.1 50 3.7 38.6
16:05 1016 30 845 24.95 13.9 57.1 50 3.7 38.7
16:10 1016 30 845 24.95 13.9 57.1 51 4 39.2
16:15 1016 30 845 24.95 12.9 55.1 55 4.2 39.5
16:20 1016 30 846 24.98 11.9 53.4 60 4.5 40.1
16:25 1016 30 846 24.98 11.2 52.2 64 4.6 40.3
16:30 1016 30 846 24.98 10.6 51.1 65 4.4 39.9
16:35 1016 30 846 24.98 10.3 50.6 64 4 39.1
16:40 1016 30 846 24.98 10.1 50.3 62 3.3 37.9
16:45 1016 30 846 24.98 10.1 50.1 61 3 37.3
16:50 1016 30 846 24.98 10.1 50.2 59 2.6 36.7
16:55 1016 30 846 24.98 10.3 50.6 59 2.6 36.7
17:00 1017 30.03 846 24.98 10.4 50.8 62 3.6 38.4
17:05 1017 30.03 846 24.98 10.2 50.4 64 3.9 38.9
17:10 1017 30.03 847 25.01 9.9 49.8 69 4.4 39.9
17:15 1018 30.06 847 25.01 9.5 49.1 72 4.7 40.5
17:20 1018 30.06 847 25.01 9.1 48.3 77 5.3 41.6
17:25 1018 30.06 847 25.01 8.4 47.1 80 5.1 41.1
17:30 1018 30.06 847 25.01 8.1 46.7 82 5.2 41.4
17:35 1018 30.06 847 25.01 8.1 46.6 83 5.4 41.6
17:40 1017 30.03 847 25.01 8.1 46.6 84 5.6 42.2
17:45 1018 30.06 847 25.01 8 46.4 86 5.9 42.5
17:50 1018 30.06 847 25.01 8.3 47 86 6.2 43.2
17:55 1018 30.06 847 25.01 8.5 47.3 84 5.9 42.6
18:00 1018 30.06 847 25.01 8.4 47 85 6 42.8
18:05 1017 30.03 847 25.01 8.3 46.9 87 6.2 43.2
18:10 1017 30.03 847 25.01 8.2 46.7 88 6.2 43.2
18:15 1017 30.03 847 25.01 8.2 46.7 87 6.1 43
18:20 1017 30.03 846 24.98 8.2 46.7 86 6 42.9
18:25 1017 30.03 847 25.01 8.2 46.8 87 6.2 43.1
18:30 1017 30.03 847 25.01 8.3 46.9 87 6.2 43.2
18:35 1017 30.03 847 25.01 8.3 47 86 6.2 43.1
18:40 1017 30.03 847 25.01 8.4 47 87 6.2 43.2
18:45 1017 30.03 847 25.01 8.3 47 87 6.4 43.4
18:50 1017 30.03 847 25.01 8.3 47 87 6.4 43.5
18:55 1017 30.03 847 25.01 8.4 47.1 87 6.3 43.4
19:00 1017 30.03 847 25.01 8.4 47.1 87 6.3 43.4
19:05 1017 30.03 847 25.01 8.2 46.8 87 6.2 43.2
19:10 1017 30.03 846 24.98 8.1 46.6 87 6 42.9
19:15 1017 30.03 846 24.98 8 46.4 87 6 42.7
19:20 1017 30.03 846 24.98 8 46.3 87 5.9 42.6
19:25 1017 30.03 846 24.98 8 46.4 87 6 42.8
19:30 1017 30.03 846 24.98 8 46.4 86 5.8 42.4
19:35 1017 30.03 846 24.98 8.1 46.5 87 6 42.7
19:40 1017 30.03 846 24.98 8 46.4 85 5.7 42.2
19:45 1017 30.03 846 24.98 8.1 46.5 84 5.5 42
19:50 1017 30.03 846 24.98 8.1 46.6 83 5.5 41.8
19:55 1017 30.03 847 25.01 8.1 46.6 83 5.4 41.7
20:00 1017 30.03 847 25.01 8 46.5 83 5.3 41.5
20:05 1017 30.03 847 25.01 8.1 46.5 83 5.4 41.7
20:10 1017 30.03 846 24.98 8 46.5 83 5.3 41.6
20:15 1017 30.03 846 24.98 7.9 46.2 84 5.3 41.5
20:20 1017 30.03 846 24.98 7.8 46.1 84 5.2 41.4
20:25 1017 30.03 846 24.98 7.8 46 83 5.1 41.3
20:30 1017 30.03 846 24.98 7.7 45.9 84 5.2 41.3
20:35 1017 30.03 847 25.01 7.7 45.8 83 5.1 41.1
20:40 1017 30.03 847 25.01 7.7 45.8 84 5.1 41.2
20:45 1017 30.03 847 25.01 7.7 45.8 84 5.1 41.1
20:50 1017 30.03 847 25.01 7.7 45.8 84 5.1 41.2
20:55 1017 30.03 847 25.01 7.6 45.7 82 4.8 40.6
21:00 1017 30.03 847 25.01 7.8 46 82 4.9 40.8
21:05 1017 30.03 847 25.01 7.8 46.1 81 4.8 40.7
21:10 1017 30.03 847 25.01 7.9 46.3 82 5.1 41.1
21:15 1017 30.03 847 25.01 7.8 46.1 82 4.9 40.9
21:20 1018 30.06 847 25.01 7.9 46.3 82 5 40.9
21:25 1018 30.06 847 25.01 8 46.4 82 5.2 41.3
21:30 1018 30.06 847 25.01 8 46.3 82 5.1 41.3
21:35 1018 30.06 847 25.01 8 46.3 83 5.2 41.4
21:40 1018 30.06 847 25.01 8 46.4 80 4.8 40.6
21:45 1018 30.06 847 25.01 8.1 46.5 79 4.6 40.3
21:50 1018 30.06 848 25.04 8.2 46.7 79 4.8 40.6
21:55 1019 30.09 848 25.04 8.1 46.6 81 5.1 41.1
22:00 1019 30.09 848 25.04 7.9 46.2 82 5 41
22:05 1019 30.09 848 25.04 7.7 45.9 82 4.8 40.7
22:10 1019 30.09 848 25.04 7.7 45.9 84 5.1 41.2
22:15 1019 30.09 848 25.04 7.8 46.1 85 5.5 41.9
22:20 1019 30.09 848 25.04 7.7 45.8 85 5.3 41.5
22:25 1019 30.09 848 25.04 7.5 45.5 84 5 40.9
22:30 1018 30.06 848 25.04 7.4 45.3 85 5 41
22:35 1018 30.06 847 25.01 7.4 45.2 86 5.2 41.4
22:40 1018 30.06 847 25.01 7.2 44.9 87 5.2 41.3
22:45 1018 30.06 847 25.01 6.9 44.4 87 4.8 40.7
22:50 1018 30.06 847 25.01 7 44.5 83 4.3 39.7
22:55 1018 30.06 847 25.01 7 44.6 82 4.2 39.6
23:00 1018 30.06 847 25.01 6.9 44.5 83 4.3 39.7
23:05 1018 30.06 847 25.01 6.8 44.2 84 4.3 39.7
23:10 1018 30.06 847 25.01 6.6 43.9 85 4.2 39.6
23:15 1018 30.06 847 25.01 6.5 43.7 84 4 39.2
23:20 1018 30.06 847 25.01 6.6 43.8 84 4.1 39.3
23:25 1018 30.06 847 25.01 6.6 43.8 84 4 39.2
23:30 1018 30.06 847 25.01 6.5 43.8 84 4 39.1
23:35 1018 30.06 847 25.01 6.5 43.6 84 4 39.1
23:40 1018 30.06 847 25.01 6.4 43.5 84 3.9 39.1
23:45 1018 30.06 847 25.01 6.5 43.6 85 4.1 39.3
23:50 1018 30.06 847 25.01 6.5 43.6 86 4.3 39.8
23:55 1018 30.06 847 25.01 6.4 43.5 86 4.3 39.7
24:00 1018 30.06 847 25.01 6.5 43.7 84 4.1 39.3